Millersburg, MI (49759)

11:58 PM EST on January 24, 2015 (GMT -0500)
Rainy River | Change Station
CLOSE
Current Station
Personal Weather Station
Location: Onaway, MI
Elevation: 673 ft
Nearby Weather Stations

Elev 673 ft 45.43 °N, 84.20 °W | Updated 11 minutes ago

Partly Cloudy
Partly Cloudy
19.2 °F
Feels Like 19 °F
N
0.0
Wind Variable Wind from NE

Today
High -- | Low -- °F
--% Chance of Precip.
Yesterday
High -- | Low -- °F
Precip. -- in
8:05 AM 5:31 PM
Waxing Crescent, 28% visible
Pressure 29.75 in
Visibility 10.0 miles
Clouds Overcast 2300 ft
Windchill 19 °F
Dew Point 15 °F
Humidity 84%
Rainfall 0.15 in
Snow Depth Not available.
UV 0 out of 12
Pollen .10 out of 12
Air Quality Not available.
Flu Activity Not available.
METAR KPZQ 250454Z AUTO 36008G14KT 10SM OVC023 M08/M11 A2975 RMK AO2 T10761109

More Conditions Fewer Conditions

Pressure 29.75 in
Visibility 10.0 miles
Clouds Overcast 2300 ft
Windchill 19 °F
Dew Point 15 °F
Humidity 84%
Rainfall 0.15 in
Snow Depth Not available.
UV 0 out of 12
Pollen .10 out of 12
Air Quality Not available.
Flu Activity Not available.
METAR KPZQ 250454Z AUTO 36008G14KT 10SM OVC023 M08/M11 A2975 RMK AO2 T10761109

More Conditions Fewer Conditions

Nowcast | as of 11:00 PM EST on January 24, 2015

At 12 am...mostly cloudy. Chance of snow showers. Temperature 16. North winds 10 mph. At 2 am...mostly cloudy. Chance of snow showers. Temperature 13. North winds 10 mph. Wind chill zero. At 4 am...mostly cloudy. Chance of snow showers. Temperature 10 above. North winds 9 mph. At 6 am...partly cloudy. Temperature 8 above. North winds 9 mph.

×

10-Day Weather Forecast

Almanac

Astronomy

Jan. 24, 2015 Rise Set
Actual Time
Civil Twilight
Nautical Twilight
Astronomical Twilight
Moon
Length of Visible Light
Length of Day
Tomorrow will be .
, % of the Moon is Illuminated

Today's Extremes

State Highs State Lows

Community

WunderPhotos

Upload Photos

1,789,839 photos uploaded!

WunderBlogs® & News

Nearby

Air Quality

  Air Quality AQ Index Pollutant
Not available.

Snow Depth

Station Depth Elevation

Earthquake Activity

City Distance Mag. Time & Date
Minimum magnitude displayed is 2.5.

Coastal Water Temperatures

Place Temperature

Nearby Weather Stations